(°C)
(°C)
-7°
-6°
-6°
-6°
-5°
-5°
-4°
ZJZ
Z
Z
ZSZ
ZSZ
ZSZ
ZSZ
(km/h)
26-46
26-46
31-54
32-54
31-53
31-55
29-53
(mm)
3
2
1.5
1.1
0
0
0
(%)
99
99
99
80
62
52
37

Sluneční výška

/ -10.6°
sun-icon
UV 1
07:16
16:02
Ubývající srpek (307°)
01:54
14:04

METAR pro Ivanka pri Dunaji (LZIB)

Čas Podmínky Teplota/
Rosný bod
Vítr Viditelnost Počasí Oblaky Tlak Změna Nezpracované
LIFR 0°C / 0°C 230º 10kt 1000m. Runway 31: Visual range is 1600m and decreasing. Runway 22: Visual range is 1900m. Snow Mist 3.00mm precipitation Vertical Visibility of 0ft.
Broken Clouds 700ft
Overcast 900ft
1005 Becoming: Visibility 0500. Snow . Broken Clouds 200ft. LZIB 301600Z 23010KT 1000 R31/1600D R22/1900N SN BR SCT003 BKN007 OVC009 00/M00 Q1005 BECMG 0500 SN BKN002
LIFR 0°C / 0°C 220º 14kt 1200m. Runway 31: Visual range is 2000m. Runway 22: Visual range is 2000m. Snow Mist 3.00mm precipitation Vertical Visibility of 0ft.
Broken Clouds 400ft
Broken Clouds 800ft
1005 Temporary: Visibility 0600. Snow . Broken Clouds 300ft. LZIB 301530Z 22014KT 1200 R31/P2000N R22/P2000N SN BR SCT003 BKN004 BKN008 00/M00 Q1005 TEMPO 0600 SN BKN003
LIFR 1°C / 0°C 230º 12kt 1200m. Runway 31: Visual range is 2000m. Runway 22: Visual range is 2000m. Snow Mist 3.00mm precipitation Vertical Visibility of 0ft.
Broken Clouds 900ft
Overcast 1900ft
1006 No Significant change LZIB 301500Z 23012KT 1200 R31/P2000N R22/P2000N SN BR SCT005 BKN009 OVC019 01/M00 Q1006 NOSIG
IFR 2°C / 0°C 210º 12kt 4200m Snow Rain Mist 3.00mm precipitation Vertical Visibility of 0ft.
Broken Clouds 2700ft
1006 No Significant change LZIB 301430Z 21012KT 4200 SNRA BR SCT023 BKN027 02/M00 Q1006 NOSIG
VFR 4°C / -1°C 210º 11kt >10km Light Snow Light Rain 1.00mm precipitation Vertical Visibility of 0ft.
Broken Clouds 4300ft
1006 No Significant change LZIB 301400Z 21011KT 9999 -SNRA FEW022 BKN043 04/M01 Q1006 NOSIG
VFR 5°C / -4°C 240º 11kt Gust 23kt >10km Light Rain 1.00mm precipitation Vertical Visibility of 0ft.
Scattered Clouds 3400ft
Broken Clouds 4200ft
1006 No Significant change LZIB 301330Z 24011G23KT 9999 -RA FEW026 SCT034 BKN042 05/M04 Q1006 NOSIG
VFR 5°C / -4°C 240º 17kt Gust 28kt >10km Light Rain 1.00mm precipitation Vertical Visibility of 0ft.
Broken Clouds 4200ft
1006 No Significant change LZIB 301300Z 24017G28KT 9999 -RA FEW026 BKN042 05/M04 Q1006 NOSIG
VFR 5°C / -4°C 250º 14kt >10km - Few Clouds 2600ft
Broken Clouds 4200ft
1007 No Significant change LZIB 301230Z 25014KT 9999 FEW026 BKN042 05/M04 Q1007 NOSIG
VFR 5°C / -3°C 260º variable 220º to 280º 14kt >10km - Few Clouds 2600ft
Scattered Clouds 3900ft
1008 No Significant change LZIB 301200Z 26014KT 220V280 9999 FEW026 SCT039 05/M03 Q1008 NOSIG
VFR 5°C / -3°C 250º variable 220º to 280º 21kt >10km - Scattered Clouds 3900ft 1008 No Significant change LZIB 301130Z 25021KT 220V280 9999 SCT039 05/M03 Q1008 NOSIG
VFR 5°C / -2°C 260º 21kt >10km - Few Clouds 3100ft 1009 No Significant change LZIB 301100Z 26021KT 9999 FEW031 05/M02 Q1009 NOSIG
VFR 5°C / -2°C 260º variable 230º to 290º 14kt Gust 24kt >10km - Few Clouds 3000ft 1009 No Significant change LZIB 301030Z 26014G24KT 230V290 9999 FEW030 05/M02 Q1009 NOSIG
VFR 5°C / -1°C 240º 13kt >10km - Few Clouds 2800ft
Scattered Clouds 3400ft
1010 No Significant change LZIB 301000Z 24013KT 9999 FEW028 SCT034 05/M01 Q1010 NOSIG
VFR 4°C / -2°C 250º variable 220º to 280º 11kt >10km - Few Clouds 2400ft
Scattered Clouds 3600ft
1010 No Significant change LZIB 300930Z 25011KT 220V280 9999 FEW024 SCT036 04/M02 Q1010 NOSIG
VFR 4°C / -2°C 250º 10kt >10km - Few Clouds 2200ft 1010 No Significant change LZIB 300900Z 25010KT 9999 FEW022 04/M02 Q1010 NOSIG
VFR 3°C / -2°C 250º 11kt >10km - Few Clouds 2200ft
Scattered Clouds 3600ft
1011 No Significant change LZIB 300830Z 25011KT 9999 FEW022 SCT036 03/M02 Q1011 NOSIG
VFR 3°C / -2°C 260º 14kt >10km - Few Clouds 2000ft 1011 No Significant change LZIB 300800Z 26014KT 9999 FEW020 03/M02 Q1011 NOSIG
VFR 3°C / -2°C 270º 11kt >10km Light Showers Snow 3.00mm precipitation Vertical Visibility of 0ft.
Scattered Clouds 4500ft
1011 No Significant change LZIB 300730Z 27011KT 9999 -SHSN FEW020 SCT045 03/M02 Q1011 NOSIG
VFR 2°C / -2°C 260º variable 210º to 310º 5kt >10km - Few Clouds 1900ft 1010 No Significant change LZIB 300700Z 26005KT 210V310 9999 FEW019 02/M02 Q1010 NOSIG
VFR 1°C / -2°C 240º variable 190º to 280º 6kt >10km - Few Clouds 1900ft 1010 No Significant change LZIB 300630Z 24006KT 190V280 9999 FEW019 01/M02 Q1010 NOSIG
VFR 1°C / -2°C variable 4kt >10km - Few Clouds 1200ft
Scattered Clouds 4300ft
1010 No Significant change LZIB 300600Z VRB04KT 9999 FEW012 SCT043 01/M02 Q1010 NOSIG
VFR 2°C / -2°C 270º 10kt >10km - Few Clouds 1400ft 1011 No Significant change LZIB 300530Z 27010KT 9999 FEW014 02/M02 Q1011 NOSIG
VFR 2°C / -2°C 290º 14kt >10km - Clouds and Visibility OK 1010 No Significant change LZIB 300500Z 29014KT CAVOK 02/M02 Q1010 NOSIG
VFR 1°C / -3°C 280º 7kt >10km - Few Clouds 4200ft 1010 - LZIB 300430Z 28007KT 9999 FEW042 01/M03 Q1010

LIFR

0°C / 0°C

[Víc]
Vítr 230º 10kt
Viditelnost 1000m. Runway 31: Visual range is 1600m and decreasing. Runway 22: Visual range is 1900m.
Počasí Snow Mist 3.00mm precipitation
Oblaky Vertical Visibility of 0ft.
Broken Clouds 700ft
Overcast 900ft
Tlak 1005
Změna Becoming: Visibility 0500. Snow . Broken Clouds 200ft.
Nezpracované LZIB 301600Z 23010KT 1000 R31/1600D R22/1900N SN BR SCT003 BKN007 OVC009 00/M00 Q1005 BECMG 0500 SN BKN002

LIFR

0°C / 0°C

[Víc]
Vítr 220º 14kt
Viditelnost 1200m. Runway 31: Visual range is 2000m. Runway 22: Visual range is 2000m.
Počasí Snow Mist 3.00mm precipitation
Oblaky Vertical Visibility of 0ft.
Broken Clouds 400ft
Broken Clouds 800ft
Tlak 1005
Změna Temporary: Visibility 0600. Snow . Broken Clouds 300ft.
Nezpracované LZIB 301530Z 22014KT 1200 R31/P2000N R22/P2000N SN BR SCT003 BKN004 BKN008 00/M00 Q1005 TEMPO 0600 SN BKN003

LIFR

1°C / 0°C

[Víc]
Vítr 230º 12kt
Viditelnost 1200m. Runway 31: Visual range is 2000m. Runway 22: Visual range is 2000m.
Počasí Snow Mist 3.00mm precipitation
Oblaky Vertical Visibility of 0ft.
Broken Clouds 900ft
Overcast 1900ft
Tlak 1006
Změna No Significant change
Nezpracované LZIB 301500Z 23012KT 1200 R31/P2000N R22/P2000N SN BR SCT005 BKN009 OVC019 01/M00 Q1006 NOSIG

IFR

2°C / 0°C

[Víc]
Vítr 210º 12kt
Viditelnost 4200m
Počasí Snow Rain Mist 3.00mm precipitation
Oblaky Vertical Visibility of 0ft.
Broken Clouds 2700ft
Tlak 1006
Změna No Significant change
Nezpracované LZIB 301430Z 21012KT 4200 SNRA BR SCT023 BKN027 02/M00 Q1006 NOSIG

VFR

4°C / -1°C

[Víc]
Vítr 210º 11kt
Viditelnost >10km
Počasí Light Snow Light Rain 1.00mm precipitation
Oblaky Vertical Visibility of 0ft.
Broken Clouds 4300ft
Tlak 1006
Změna No Significant change
Nezpracované LZIB 301400Z 21011KT 9999 -SNRA FEW022 BKN043 04/M01 Q1006 NOSIG

VFR

5°C / -4°C

[Víc]
Vítr 240º 11kt Gust 23kt
Viditelnost >10km
Počasí Light Rain 1.00mm precipitation
Oblaky Vertical Visibility of 0ft.
Scattered Clouds 3400ft
Broken Clouds 4200ft
Tlak 1006
Změna No Significant change
Nezpracované LZIB 301330Z 24011G23KT 9999 -RA FEW026 SCT034 BKN042 05/M04 Q1006 NOSIG

VFR

5°C / -4°C

[Víc]
Vítr 240º 17kt Gust 28kt
Viditelnost >10km
Počasí Light Rain 1.00mm precipitation
Oblaky Vertical Visibility of 0ft.
Broken Clouds 4200ft
Tlak 1006
Změna No Significant change
Nezpracované LZIB 301300Z 24017G28KT 9999 -RA FEW026 BKN042 05/M04 Q1006 NOSIG

VFR

5°C / -4°C

[Víc]
Vítr 250º 14kt
Viditelnost >10km
Počasí -
Oblaky Few Clouds 2600ft
Broken Clouds 4200ft
Tlak 1007
Změna No Significant change
Nezpracované LZIB 301230Z 25014KT 9999 FEW026 BKN042 05/M04 Q1007 NOSIG

VFR

5°C / -3°C

[Víc]
Vítr 260º variable 220º to 280º 14kt
Viditelnost >10km
Počasí -
Oblaky Few Clouds 2600ft
Scattered Clouds 3900ft
Tlak 1008
Změna No Significant change
Nezpracované LZIB 301200Z 26014KT 220V280 9999 FEW026 SCT039 05/M03 Q1008 NOSIG

VFR

5°C / -3°C

[Víc]
Vítr 250º variable 220º to 280º 21kt
Viditelnost >10km
Počasí -
Oblaky Scattered Clouds 3900ft
Tlak 1008
Změna No Significant change
Nezpracované LZIB 301130Z 25021KT 220V280 9999 SCT039 05/M03 Q1008 NOSIG

VFR

5°C / -2°C

[Víc]
Vítr 260º 21kt
Viditelnost >10km
Počasí -
Oblaky Few Clouds 3100ft
Tlak 1009
Změna No Significant change
Nezpracované LZIB 301100Z 26021KT 9999 FEW031 05/M02 Q1009 NOSIG

VFR

5°C / -2°C

[Víc]
Vítr 260º variable 230º to 290º 14kt Gust 24kt
Viditelnost >10km
Počasí -
Oblaky Few Clouds 3000ft
Tlak 1009
Změna No Significant change
Nezpracované LZIB 301030Z 26014G24KT 230V290 9999 FEW030 05/M02 Q1009 NOSIG

VFR

5°C / -1°C

[Víc]
Vítr 240º 13kt
Viditelnost >10km
Počasí -
Oblaky Few Clouds 2800ft
Scattered Clouds 3400ft
Tlak 1010
Změna No Significant change
Nezpracované LZIB 301000Z 24013KT 9999 FEW028 SCT034 05/M01 Q1010 NOSIG

VFR

4°C / -2°C

[Víc]
Vítr 250º variable 220º to 280º 11kt
Viditelnost >10km
Počasí -
Oblaky Few Clouds 2400ft
Scattered Clouds 3600ft
Tlak 1010
Změna No Significant change
Nezpracované LZIB 300930Z 25011KT 220V280 9999 FEW024 SCT036 04/M02 Q1010 NOSIG

VFR

4°C / -2°C

[Víc]
Vítr 250º 10kt
Viditelnost >10km
Počasí -
Oblaky Few Clouds 2200ft
Tlak 1010
Změna No Significant change
Nezpracované LZIB 300900Z 25010KT 9999 FEW022 04/M02 Q1010 NOSIG

VFR

3°C / -2°C

[Víc]
Vítr 250º 11kt
Viditelnost >10km
Počasí -
Oblaky Few Clouds 2200ft
Scattered Clouds 3600ft
Tlak 1011
Změna No Significant change
Nezpracované LZIB 300830Z 25011KT 9999 FEW022 SCT036 03/M02 Q1011 NOSIG

VFR

3°C / -2°C

[Víc]
Vítr 260º 14kt
Viditelnost >10km
Počasí -
Oblaky Few Clouds 2000ft
Tlak 1011
Změna No Significant change
Nezpracované LZIB 300800Z 26014KT 9999 FEW020 03/M02 Q1011 NOSIG

VFR

3°C / -2°C

[Víc]
Vítr 270º 11kt
Viditelnost >10km
Počasí Light Showers Snow 3.00mm precipitation
Oblaky Vertical Visibility of 0ft.
Scattered Clouds 4500ft
Tlak 1011
Změna No Significant change
Nezpracované LZIB 300730Z 27011KT 9999 -SHSN FEW020 SCT045 03/M02 Q1011 NOSIG

VFR

2°C / -2°C

[Víc]
Vítr 260º variable 210º to 310º 5kt
Viditelnost >10km
Počasí -
Oblaky Few Clouds 1900ft
Tlak 1010
Změna No Significant change
Nezpracované LZIB 300700Z 26005KT 210V310 9999 FEW019 02/M02 Q1010 NOSIG

VFR

1°C / -2°C

[Víc]
Vítr 240º variable 190º to 280º 6kt
Viditelnost >10km
Počasí -
Oblaky Few Clouds 1900ft
Tlak 1010
Změna No Significant change
Nezpracované LZIB 300630Z 24006KT 190V280 9999 FEW019 01/M02 Q1010 NOSIG

VFR

1°C / -2°C

[Víc]
Vítr variable 4kt
Viditelnost >10km
Počasí -
Oblaky Few Clouds 1200ft
Scattered Clouds 4300ft
Tlak 1010
Změna No Significant change
Nezpracované LZIB 300600Z VRB04KT 9999 FEW012 SCT043 01/M02 Q1010 NOSIG

VFR

2°C / -2°C

[Víc]
Vítr 270º 10kt
Viditelnost >10km
Počasí -
Oblaky Few Clouds 1400ft
Tlak 1011
Změna No Significant change
Nezpracované LZIB 300530Z 27010KT 9999 FEW014 02/M02 Q1011 NOSIG

VFR

2°C / -2°C

[Víc]
Vítr 290º 14kt
Viditelnost >10km
Počasí -
Oblaky Clouds and Visibility OK
Tlak 1010
Změna No Significant change
Nezpracované LZIB 300500Z 29014KT CAVOK 02/M02 Q1010 NOSIG

VFR

1°C / -3°C

[Víc]
Vítr 280º 7kt
Viditelnost >10km
Počasí -
Oblaky Few Clouds 4200ft
Tlak 1010
Změna -
Nezpracované LZIB 300430Z 28007KT 9999 FEW042 01/M03 Q1010

TAF pro Ivanka pri Dunaji (LZIB)

From till


From till Wind 250º 13kt. Visibility 4000m. Light Snow Mist . Scattered Clouds 200ft. Broken Clouds 400ft.
With 40% probability, Temporarly from till Visibility 498.895m. Snow . Broken Clouds 200ft.
Temporarly from till Wind 270º 20kt. Gust 30kt.
Temporarly from till Visibility 2500m. Light Snow Mist . Broken Clouds 900ft.
Temporarly from till Light Rain . Few Clouds 900ft. Broken Clouds 1600ft.
Becoming from till Wind 190º 13kt. Visibility 4000m. Light Snow Mist . Scattered Clouds 4300ft.

Nezpracované: TAF AMD LZIB 301553Z 3015/0112 25013KT 4000 -SN BR SCT002 BKN004 TEMPO 3015/0100 27020G30KT TEMPO 3015/0102 2500 -SN BR BKN009 PROB40 TEMPO 3015/3018 0500 SN BKN002 TEMPO 0105/0110 -RA FEW009 BKN016 BECMG 0110/0112 19013KT SCT043

Aktuální snímky ze satelitu a srážky pro Ivanka pri Dunaji, Slovensko

Značka polohy je umístěna na Ivanka pri Dunaji. [Víc]

Satelitní snímek v reálném čase kombinuje viditelné světlo během dne s infračerveným zářením během noci. V noci není obraz tmavý, protože infračervené záření dokáže detekovat teplotní rozdíly. Nízká oblačnost a mlha se bohužel těžko odlišují od pozemních teplot, a proto mohou být během noci téměř neviditelné. Satelitní snímky z Meteosatu pro Evropu jsou aktualizovány v reálném čase každých 5 minut. Snímky z GOES-16/GOES-17 (Severní a Jižní Amerika) a Himawari (Asie) jsou aktualizovány) každých 10 minut.

Srážky jsou odhadované na základě radaru a satelitů. V noci jsou odhady srážek ze satelitů méně přesné než během dne. Oranžové křížky označují místa, kde byl zaznamenán blesk (za Evropa).

Copyright 2021 EUMETSAT / meteoblue. Údaje o blescích poskytuje nowcast.

Radar a krátkodobá předpověď srážek pro Ivanka pri Dunaji

Mrholení
Slabé
Střední
Silné
Velmi silné
Kroupy

Značka lokality je umístněna na Ivanka pri Dunaji. Tato animace ukazuje srážky zaznamenané radarem za poslední hodinu a také 1h předpověď. Mrholení nebo slabé sněžení může být pro radar neviditelné. Intenzita srážek je barevně označena od světle modré po oranžovou.